Time;durP1;ratioP1;P1;durP2;ratioP2;P2;SDS_P1;SDS_P2;PMS_P1;PMS_P2;Temp;Humidity;BMP_temperature;BMP_pressure;BME280_temperature;BME280_humidity;BME280_pressure;Samples;Min_cycle;Max_cycle;Signal;HPM_P1;HPM_P2
2023/05/10 00:02:42;;;;;;;0.95;0.57;;;;;;;18.15;57.96;96178.34;10438882;28;20113;-30
2023/05/10 00:07:44;;;;;;;0.57;0.37;;;;;;;18.15;57.54;96175.81;10410635;28;20046;-30
2023/05/10 00:12:47;;;;;;;0.43;0.43;;;;;;;18.14;57.52;96174.09;10405526;28;20195;-30
2023/05/10 00:17:47;;;;;;;0.40;0.32;;;;;;;18.13;57.68;96180.03;10417885;28;20093;-29
2023/05/10 00:22:48;;;;;;;1.43;0.50;;;;;;;18.14;58.14;96177.50;10430227;28;20075;-29
2023/05/10 00:27:49;;;;;;;1.13;0.60;;;;;;;18.35;62.07;96181.59;10410908;28;20025;-29
2023/05/10 00:32:49;;;;;;;0.80;0.43;;;;;;;18.49;63.59;96175.53;10423857;28;20460;-30
2023/05/10 00:37:50;;;;;;;0.70;0.55;;;;;;;18.39;61.39;96168.03;10428708;28;20076;-30
2023/05/10 00:42:50;;;;;;;1.17;0.30;;;;;;;18.29;61.24;96171.47;10410775;28;20119;-29
2023/05/10 00:47:54;;;;;;;1.10;0.98;;;;;;;18.23;60.26;96171.50;10421289;28;20041;-29
2023/05/10 00:52:55;;;;;;;0.98;0.47;;;;;;;18.20;59.69;96176.59;10394639;28;20038;-29
2023/05/10 00:57:56;;;;;;;0.45;0.43;;;;;;;18.18;59.49;96174.06;10442537;28;20029;-30
2023/05/10 01:02:57;;;;;;;1.25;0.57;;;;;;;18.16;58.97;96170.72;10412051;28;20551;-30
2023/05/10 01:07:57;;;;;;;1.25;0.60;;;;;;;18.16;58.69;96182.56;10382412;28;20041;-29
2023/05/10 01:13:00;;;;;;;0.97;0.60;;;;;;;18.13;58.31;96174.97;10407627;28;20033;-29
2023/05/10 01:18:01;;;;;;;0.45;0.43;;;;;;;18.15;58.13;96183.41;10413877;28;20038;-31
2023/05/10 01:23:07;;;;;;;1.05;0.60;;;;;;;18.14;58.09;96181.69;10394137;28;20513;-29
2023/05/10 01:28:22;;;;;;;1.30;0.60;;;;;;;18.21;64.05;96183.34;10417346;28;20496;-30
2023/05/10 01:33:43;;;;;;;0.45;0.40;;;;;;;18.39;64.11;96184.09;10412188;28;20214;-30
2023/05/10 01:38:56;;;;;;;0.95;0.47;;;;;;;18.46;61.25;96189.94;10399461;28;20033;-30
2023/05/10 01:44:29;;;;;;;0.55;0.55;;;;;;;18.32;61.67;96196.81;10447661;28;20028;-29
2023/05/10 01:49:36;;;;;;;1.00;0.50;;;;;;;18.24;61.28;96208.69;10399407;28;20127;-30
2023/05/10 01:54:42;;;;;;;0.60;0.57;;;;;;;18.18;60.46;96201.13;10388024;28;20036;-30
2023/05/10 01:59:49;;;;;;;1.45;0.57;;;;;;;18.18;59.43;96206.19;10407484;28;20042;-29
2023/05/10 02:04:50;;;;;;;;;;;;;;;18.17;59.63;96207.03;10427794;28;20111;-29
2023/05/10 02:09:51;;;;;;;0.40;0.40;;;;;;;18.15;59.25;96203.69;10414504;28;19920;-29
2023/05/10 02:14:53;;;;;;;1.63;0.60;;;;;;;18.14;58.80;96212.09;10422777;28;20042;-29
2023/05/10 02:19:55;;;;;;;0.80;0.50;;;;;;;18.14;58.63;96222.22;10383798;28;20030;-31
2023/05/10 02:24:58;;;;;;;0.70;0.60;;;;;;;18.12;58.41;96219.72;10409687;28;20056;-30
2023/05/10 02:29:58;;;;;;;1.05;0.95;;;;;;;18.12;58.20;96221.41;10407376;28;20390;-30
2023/05/10 02:35:01;;;;;;;1.33;0.47;;;;;;;18.30;62.08;96228.91;10422427;28;20033;-29
2023/05/10 02:40:05;;;;;;;0.60;0.55;;;;;;;18.46;63.28;96225.41;10406633;28;20489;-31
2023/05/10 02:45:11;;;;;;;0.63;0.40;;;;;;;18.36;61.56;96228.88;10431608;28;20397;-30
2023/05/10 02:50:11;;;;;;;0.40;0.40;;;;;;;18.25;61.54;96221.31;10437303;28;20375;-29
2023/05/10 02:55:15;;;;;;;1.23;0.45;;;;;;;18.19;60.94;96226.44;10408200;28;20028;-29
2023/05/10 03:00:16;;;;;;;0.70;0.47;;;;;;;18.17;60.30;96225.59;10419539;28;20112;-29
2023/05/10 03:05:16;;;;;;;0.50;0.50;;;;;;;18.16;59.49;96228.16;10405198;28;20108;-30
2023/05/10 03:10:18;;;;;;;0.40;0.40;;;;;;;18.14;59.03;96227.31;10422031;28;20108;-30
2023/05/10 03:15:58;;;;;;;0.60;0.60;;;;;;;18.14;58.95;96237.44;10405970;28;20116;-29
2023/05/10 03:21:02;;;;;;;0.50;0.50;;;;;;;18.13;59.18;96236.63;10406910;28;20029;-30
2023/05/10 03:26:04;;;;;;;0.60;0.43;;;;;;;18.13;58.66;96235.75;10413001;28;20121;-30
2023/05/10 03:31:06;;;;;;;1.45;0.68;;;;;;;18.13;58.64;96243.34;10422257;28;20025;-30
2023/05/10 03:36:07;;;;;;;0.50;0.50;;;;;;;18.21;62.66;96244.16;10379769;28;20067;-29
2023/05/10 03:41:08;;;;;;;2.05;0.38;;;;;;;18.39;63.88;96244.06;10433990;28;20107;-31
2023/05/10 03:46:08;;;;;;;0.50;0.50;;;;;;;18.40;61.76;96243.22;10424096;28;20025;-30
2023/05/10 03:51:09;;;;;;;0.50;0.47;;;;;;;18.27;61.59;96250.03;10411233;28;20033;-31
2023/05/10 03:56:09;;;;;;;0.47;0.40;;;;;;;18.19;61.18;96241.66;10415476;28;20040;-30
2023/05/10 04:01:11;;;;;;;0.35;0.35;;;;;;;18.17;60.61;96247.56;10393134;28;20124;-30
2023/05/10 04:06:11;;;;;;;0.50;0.50;;;;;;;18.15;60.11;96245.03;10389165;28;20106;-31
2023/05/10 04:11:13;;;;;;;1.52;0.50;;;;;;;18.13;59.89;96236.63;10416117;28;20025;-29
2023/05/10 04:16:13;;;;;;;0.35;0.32;;;;;;;18.13;59.43;96240.81;10423087;28;20025;-30
2023/05/10 04:21:14;;;;;;;0.70;0.60;;;;;;;18.14;60.04;96238.28;10428495;28;20029;-30
2023/05/10 04:26:14;;;;;;;2.10;0.40;;;;;;;18.13;59.23;96241.69;10410817;28;20124;-29
2023/05/10 04:31:15;;;;;;;0.87;0.50;;;;;;;18.14;59.40;96242.50;10416205;28;20037;-30
2023/05/10 04:36:15;;;;;;;1.13;0.60;;;;;;;18.10;59.61;96239.19;10416615;28;20302;-30
2023/05/10 04:41:15;;;;;;;0.83;0.50;;;;;;;18.28;60.17;96246.66;10402734;28;20473;-30
2023/05/10 04:46:16;;;;;;;0.70;0.50;;;;;;;18.39;63.33;96252.50;10426200;28;20299;-30
2023/05/10 04:51:18;;;;;;;0.85;0.50;;;;;;;18.36;60.41;96254.22;10410776;28;20041;-29
2023/05/10 04:56:19;;;;;;;3.90;0.77;;;;;;;18.28;62.92;96261.00;10419810;28;20620;-28
2023/05/10 05:01:19;;;;;;;2.40;0.33;;;;;;;18.23;63.62;96252.56;10414559;28;20029;-30
2023/05/10 05:06:20;;;;;;;6.17;0.90;;;;;;;18.11;63.43;96267.88;10415566;28;20409;-29
2023/05/10 05:11:21;;;;;;;5.90;1.33;;;;;;;18.13;62.61;96266.16;10414489;28;20041;-29
2023/05/10 05:16:21;;;;;;;7.40;0.90;;;;;;;18.12;61.39;96269.53;10397169;28;20042;-29
2023/05/10 05:21:22;;;;;;;4.00;0.90;;;;;;;18.12;60.32;96277.16;10389415;28;20112;-30
2023/05/10 05:26:22;;;;;;;2.50;1.05;;;;;;;18.11;59.97;96270.41;10415880;28;20033;-29
2023/05/10 05:31:22;;;;;;;1.57;0.50;;;;;;;18.10;59.97;96272.09;10403693;28;20030;-29
2023/05/10 05:36:23;;;;;;;4.50;0.70;;;;;;;17.84;62.51;96273.09;10409453;28;20137;-29
2023/05/10 05:41:24;;;;;;;4.27;0.67;;;;;;;18.01;61.36;96281.44;10384402;28;20505;-30
2023/05/10 05:46:24;;;;;;;7.22;0.57;;;;;;;18.23;63.23;96288.03;10424499;28;20795;-30
2023/05/10 05:51:25;;;;;;;1.73;0.67;;;;;;;18.34;66.85;96291.41;10403964;28;20042;-33
2023/05/10 05:56:25;;;;;;;0.30;0.30;;;;;;;18.30;61.35;96289.72;10367715;28;20077;-29
2023/05/10 06:01:25;;;;;;;1.33;0.30;;;;;;;18.20;62.07;96293.16;10410513;28;20040;-29
2023/05/10 06:06:26;;;;;;;2.63;0.30;;;;;;;18.13;61.51;96299.94;10416320;28;20505;-30
2023/05/10 06:11:27;;;;;;;1.77;0.40;;;;;;;18.13;60.98;96306.69;10426400;28;20398;-30
2023/05/10 06:16:27;;;;;;;1.17;0.50;;;;;;;18.12;60.82;96320.22;10431607;28;20049;-30
2023/05/10 06:21:28;;;;;;;0.88;0.40;;;;;;;18.09;60.38;96315.16;10417449;28;20038;-29
2023/05/10 06:26:28;;;;;;;1.87;1.70;;;;;;;18.10;60.17;96321.91;10409145;28;20041;-30
2023/05/10 06:31:28;;;;;;;0.90;0.50;;;;;;;18.08;59.36;96318.56;10378198;28;20304;-30
2023/05/10 06:36:29;;;;;;;0.60;0.30;;;;;;;18.07;59.10;96321.94;10391075;28;20061;-31
2023/05/10 06:41:29;;;;;;;3.80;0.77;;;;;;;18.06;58.94;96313.50;10407541;28;20041;-31
2023/05/10 06:46:29;;;;;;;2.83;0.80;;;;;;;18.10;61.61;96330.38;10411257;28;20041;-29
2023/05/10 06:51:30;;;;;;;0.30;0.27;;;;;;;18.29;61.12;96328.56;10397181;28;20455;-30
2023/05/10 06:56:30;;;;;;;0.75;0.45;;;;;;;18.39;61.97;96330.22;10390454;28;20049;-30
2023/05/10 07:01:31;;;;;;;0.43;0.30;;;;;;;18.29;61.00;96334.53;10413082;28;20033;-29
2023/05/10 07:06:31;;;;;;;0.40;0.30;;;;;;;18.19;61.51;96337.94;10412918;28;20390;-29
2023/05/10 07:11:31;;;;;;;0.30;0.30;;;;;;;18.15;61.03;96338.78;10389873;28;20040;-29
2023/05/10 07:16:32;;;;;;;1.00;0.70;;;;;;;18.10;60.57;96339.66;10389875;28;20447;-30
2023/05/10 07:21:32;;;;;;;0.87;0.50;;;;;;;18.11;60.44;96341.34;10428561;28;20393;-29
2023/05/10 07:26:32;;;;;;;0.77;0.50;;;;;;;18.08;59.94;96339.66;10397443;28;20057;-31
2023/05/10 07:31:33;;;;;;;0.97;0.50;;;;;;;18.09;59.92;96345.56;10412050;28;20045;-29
2023/05/10 07:36:33;;;;;;;3.10;0.50;;;;;;;18.08;59.74;96354.84;10395394;28;20129;-30
2023/05/10 07:41:34;;;;;;;0.45;0.30;;;;;;;18.07;59.23;96360.75;10413774;28;20038;-31
2023/05/10 07:46:34;;;;;;;0.40;0.30;;;;;;;18.07;59.17;96360.75;10405112;28;20409;-30
2023/05/10 07:51:34;;;;;;;0.50;0.30;;;;;;;18.11;62.37;96369.19;10405037;28;20307;-30
2023/05/10 07:56:35;;;;;;;0.57;0.47;;;;;;;18.29;61.01;96358.97;10420843;28;20041;-31
2023/05/10 08:01:35;;;;;;;1.07;0.40;;;;;;;18.36;60.45;96361.53;10435911;28;20778;-29
2023/05/10 08:06:36;;;;;;;0.50;0.30;;;;;;;18.27;61.29;96373.34;10409908;28;20515;-32
2023/05/10 08:11:36;;;;;;;0.50;0.27;;;;;;;18.17;61.19;96364.13;10420129;28;20488;-29
2023/05/10 08:16:36;;;;;;;1.00;0.37;;;;;;;18.13;60.82;96362.44;10388558;28;20303;-30
2023/05/10 08:21:37;;;;;;;0.63;0.50;;;;;;;18.10;60.40;96372.59;10419300;28;20289;-30
2023/05/10 08:26:37;;;;;;;0.47;0.30;;;;;;;18.09;60.07;96365.84;10387561;28;20473;-30
2023/05/10 08:31:38;;;;;;;1.38;0.40;;;;;;;18.08;59.94;96364.16;10404433;28;20305;-30
2023/05/10 08:36:38;;;;;;;0.67;0.40;;;;;;;18.05;59.55;96364.16;10389379;28;20039;-30
2023/05/10 08:41:39;;;;;;;0.30;0.20;;;;;;;18.07;59.24;96362.47;10386699;28;20029;-30
2023/05/10 08:46:43;;;;;;;0.60;0.40;;;;;;;18.06;59.18;96361.63;10400019;28;20713;-29
2023/05/10 08:51:49;;;;;;;1.00;0.30;;;;;;;18.06;59.04;96365.81;10425056;28;20045;-29
2023/05/10 08:56:50;;;;;;;0.55;0.25;;;;;;;18.14;62.39;96359.03;10401987;28;20432;-29
2023/05/10 09:01:53;;;;;;;0.35;0.22;;;;;;;18.29;60.68;96348.84;10399732;28;20037;-29
2023/05/10 09:06:54;;;;;;;0.30;0.30;;;;;;;18.37;59.91;96357.28;10429613;28;20127;-29
2023/05/10 09:11:54;;;;;;;1.30;0.40;;;;;;;18.25;60.61;96357.31;10391071;28;20067;-30
2023/05/10 09:16:56;;;;;;;0.20;0.20;;;;;;;18.17;60.78;96359.03;10418840;28;20509;-30
2023/05/10 09:21:56;;;;;;;0.40;0.32;;;;;;;18.12;60.38;96361.59;10372313;28;20038;-29
2023/05/10 09:26:58;;;;;;;2.30;0.40;;;;;;;18.09;60.17;96365.84;10384977;28;20045;-30
2023/05/10 09:31:58;;;;;;;0.60;0.35;;;;;;;18.08;59.73;96381.88;10415006;28;20085;-29
2023/05/10 09:37:06;;;;;;;0.97;0.40;;;;;;;18.06;59.74;96373.44;10411254;28;20404;-31
2023/05/10 09:42:09;;;;;;;0.73;0.47;;;;;;;18.08;59.65;96392.03;10377129;28;20029;-29
2023/05/10 09:47:09;;;;;;;0.57;0.38;;;;;;;18.08;59.54;96397.09;10418848;28;20120;-30
2023/05/10 09:52:10;;;;;;;0.98;0.57;;;;;;;18.08;59.60;96402.16;10380715;28;20097;-30
2023/05/10 09:57:20;;;;;;;0.75;0.35;;;;;;;18.07;59.39;96392.88;10394074;28;20037;-30
2023/05/10 10:02:21;;;;;;;0.10;0.10;;;;;;;18.16;61.40;96391.13;10416352;28;20064;-30
2023/05/10 10:07:25;;;;;;;0.30;0.30;;;;;;;18.29;61.24;96389.38;10376794;28;20061;-30
2023/05/10 10:12:26;;;;;;;0.68;0.38;;;;;;;18.32;60.13;96397.84;10383574;28;20135;-30
2023/05/10 10:17:27;;;;;;;0.17;0.17;;;;;;;18.20;60.41;96408.03;10388694;28;20030;-29
2023/05/10 10:22:28;;;;;;;0.40;0.20;;;;;;;18.15;60.62;96401.28;10373263;28;20034;-29
2023/05/10 10:27:35;;;;;;;0.30;0.30;;;;;;;18.13;59.73;96402.97;10415052;28;20040;-31
2023/05/10 10:32:44;;;;;;;0.75;0.30;;;;;;;18.08;58.82;96415.66;10372669;28;20422;-30
2023/05/10 10:37:47;;;;;;;1.70;0.15;;;;;;;18.01;59.77;96413.97;10420853;28;20111;-30
2023/05/10 10:42:49;;;;;;;10.43;0.98;;;;;;;18.08;60.58;96402.16;10380978;28;20030;-30
2023/05/10 10:48:28;;;;;;;17.80;1.95;;;;;;;18.13;59.94;96411.41;10403134;28;20513;-29
2023/05/10 10:53:30;;;;;;;10.63;1.48;;;;;;;18.09;59.45;96402.13;10397566;28;20072;-31
2023/05/10 10:58:32;;;;;;;9.27;1.17;;;;;;;18.09;59.08;96398.78;10405970;28;20036;-29
2023/05/10 11:03:32;;;;;;;4.05;0.75;;;;;;;18.09;62.18;96391.16;10397734;28;20038;-30
2023/05/10 11:08:40;;;;;;;3.53;0.43;;;;;;;18.31;66.20;96391.09;10392809;28;20061;-30
2023/05/10 11:13:45;;;;;;;9.60;1.00;;;;;;;18.38;63.29;96390.22;10415254;28;20131;-30
2023/05/10 11:19:03;;;;;;;3.83;0.77;;;;;;;18.33;60.89;96397.00;10410350;28;20193;-30
2023/05/10 11:24:13;;;;;;;3.78;0.77;;;;;;;18.22;59.20;96400.38;10406228;28;20021;-30
2023/05/10 11:29:14;;;;;;;6.57;0.70;;;;;;;18.17;59.18;96404.66;10432297;28;20037;-30
2023/05/10 11:34:30;;;;;;;1.50;0.60;;;;;;;18.14;59.15;96399.56;10435430;28;20400;-30
2023/05/10 11:39:31;;;;;;;5.72;1.10;;;;;;;18.12;59.13;96386.06;10430352;28;20428;-30
2023/05/10 11:44:32;;;;;;;2.25;0.75;;;;;;;18.10;59.00;96377.66;10418885;28;20033;-29
2023/05/10 11:49:33;;;;;;;3.20;0.80;;;;;;;18.10;59.00;96395.38;10436926;28;20032;-29
2023/05/10 11:54:34;;;;;;;3.65;1.73;;;;;;;18.09;58.55;96388.63;10423487;28;20090;-29
2023/05/10 11:59:36;;;;;;;2.47;1.13;;;;;;;18.07;58.83;96393.69;10419692;28;20041;-30
2023/05/10 12:04:37;;;;;;;2.75;1.00;;;;;;;18.08;58.92;96394.56;10404753;28;20455;-29
2023/05/10 12:09:45;;;;;;;5.40;1.63;;;;;;;18.21;62.13;96397.03;10412562;28;20095;-30
2023/05/10 12:14:50;;;;;;;5.50;1.00;;;;;;;18.37;65.35;96388.53;10428233;28;20284;-30
2023/05/10 12:19:50;;;;;;;9.07;2.00;;;;;;;18.38;61.92;96384.31;10420532;28;20068;-29
2023/05/10 12:24:50;;;;;;;4.80;1.60;;;;;;;18.29;61.26;96384.31;10430325;28;20119;-29
2023/05/10 12:29:51;;;;;;;12.60;2.80;;;;;;;18.23;60.11;96389.41;10435130;28;20040;-29
2023/05/10 12:34:53;;;;;;;8.43;2.73;;;;;;;18.18;60.01;96386.88;10429485;28;20149;-31
2023/05/10 12:39:53;;;;;;;5.13;2.83;;;;;;;18.17;59.53;96369.19;10427704;28;20037;-31
2023/05/10 12:44:57;;;;;;;6.07;2.30;;;;;;;18.16;59.78;96377.63;10429661;28;20112;-29
2023/05/10 12:49:57;;;;;;;12.90;3.08;;;;;;;18.11;59.21;96389.47;10451499;28;20295;-30
2023/05/10 12:54:59;;;;;;;9.90;2.97;;;;;;;18.09;59.24;96408.91;10387708;28;20406;-30
2023/05/10 13:00:00;;;;;;;4.57;2.13;;;;;;;18.09;58.62;96419.84;10374105;28;20045;-30
2023/05/10 13:05:00;;;;;;;4.17;1.63;;;;;;;18.08;59.15;96414.81;10424920;28;20127;-30
2023/05/10 13:10:01;;;;;;;5.35;2.20;;;;;;;18.07;59.02;96411.44;10410364;28;20032;-29
2023/05/10 13:15:05;;;;;;;2.47;1.17;;;;;;;18.31;66.06;96424.03;10427046;28;20513;-30
2023/05/10 13:20:06;;;;;;;2.60;1.30;;;;;;;18.43;65.44;96420.63;10426472;28;20043;-31
2023/05/10 13:25:07;;;;;;;5.45;2.35;;;;;;;18.38;61.63;96425.72;10415996;28;20029;-30
2023/05/10 13:30:11;;;;;;;3.42;2.10;;;;;;;18.27;59.98;96429.09;10437355;28;20415;-29
2023/05/10 13:35:11;;;;;;;4.07;2.35;;;;;;;18.22;59.18;96430.78;10413766;28;20064;-30
2023/05/10 13:40:12;;;;;;;9.00;2.57;;;;;;;18.19;59.08;96428.28;10418424;28;20033;-30
2023/05/10 13:45:12;;;;;;;7.30;3.05;;;;;;;18.16;59.06;96420.72;10401813;28;20040;-29
2023/05/10 13:50:13;;;;;;;5.10;2.13;;;;;;;18.13;59.04;96415.63;10430859;28;20034;-30
2023/05/10 13:55:13;;;;;;;7.63;2.60;;;;;;;18.14;59.15;96408.03;10400708;28;20162;-30
2023/05/10 14:00:14;;;;;;;6.60;2.95;;;;;;;18.10;58.93;96413.13;10400124;28;20520;-30
2023/05/10 14:05:15;;;;;;;8.13;2.75;;;;;;;18.10;59.37;96401.31;10416928;28;20064;-30
2023/05/10 14:10:15;;;;;;;6.20;3.70;;;;;;;18.11;58.99;96399.59;10417617;28;20037;-30
2023/05/10 14:15:16;;;;;;;6.97;1.05;;;;;;;18.19;62.32;96408.88;10402992;28;20660;-29
2023/05/10 14:20:16;;;;;;;4.27;1.23;;;;;;;18.34;65.79;96406.28;10428270;28;20039;-30
2023/05/10 14:25:17;;;;;;;6.77;2.90;;;;;;;18.44;61.57;96409.63;10403890;28;20629;-29
2023/05/10 14:30:17;;;;;;;5.60;3.17;;;;;;;18.36;61.49;96411.34;10444187;28;20120;-29
2023/05/10 14:35:18;;;;;;;5.03;2.50;;;;;;;18.22;60.49;96410.53;10425013;28;20029;-30
2023/05/10 14:40:18;;;;;;;4.50;2.37;;;;;;;18.20;59.62;96414.75;10438540;28;20636;-30
2023/05/10 14:45:19;;;;;;;5.80;2.72;;;;;;;18.16;59.11;96410.56;10399313;28;20017;-29
2023/05/10 14:50:19;;;;;;;7.85;2.88;;;;;;;18.15;58.96;96408.88;10438644;28;20040;-29
2023/05/10 14:55:20;;;;;;;6.13;2.40;;;;;;;18.12;59.11;96406.34;10448054;28;21082;-30
2023/05/10 15:00:20;;;;;;;5.73;2.10;;;;;;;18.14;58.90;96404.63;10438073;28;20032;-30
2023/05/10 15:05:22;;;;;;;5.40;1.60;;;;;;;18.10;58.63;96403.84;10421976;28;20365;-29
2023/05/10 15:10:22;;;;;;;3.83;1.30;;;;;;;18.19;62.24;96408.00;10409571;28;20120;-30
2023/05/10 15:15:22;;;;;;;2.28;2.08;;;;;;;18.22;60.96;96398.72;10424918;28;20026;-29
2023/05/10 15:20:23;;;;;;;4.77;1.37;;;;;;;18.36;64.71;96391.06;10409715;28;20048;-30
2023/05/10 15:25:23;;;;;;;7.80;1.57;;;;;;;18.49;65.03;96392.72;10401069;28;20038;-30
2023/05/10 15:30:23;;;;;;;2.40;0.83;;;;;;;18.63;61.17;96408.66;10439377;28;20092;-29
2023/05/10 15:35:25;;;;;;;2.63;0.70;;;;;;;18.60;55.94;96398.56;10400862;28;20039;-31
2023/05/10 15:40:28;;;;;;;1.05;0.60;;;;;;;18.41;57.94;96389.38;10414114;28;20611;-29
2023/05/10 15:45:28;;;;;;;1.33;0.95;;;;;;;18.36;58.56;96391.94;10410155;28;20093;-29
2023/05/10 15:50:29;;;;;;;9.73;1.10;;;;;;;18.29;59.82;96389.38;10405743;28;20452;-30
2023/05/10 15:55:29;;;;;;;5.00;1.03;;;;;;;18.25;59.88;96397.88;10409014;28;20364;-31
2023/05/10 16:00:30;;;;;;;7.17;1.23;;;;;;;18.26;59.95;96414.75;10404561;28;20128;-29
2023/05/10 16:05:32;;;;;;;3.65;0.88;;;;;;;18.24;59.70;96416.44;10370690;28;20289;-29
2023/05/10 16:10:32;;;;;;;1.27;0.68;;;;;;;18.24;60.42;96416.44;10393381;28;20447;-30
2023/05/10 16:15:35;;;;;;;1.90;0.50;;;;;;;18.25;60.38;96421.50;10426986;28;20114;-30
2023/05/10 16:20:35;;;;;;;2.65;0.55;;;;;;;18.23;61.02;96418.13;10416861;28;20424;-31
2023/05/10 16:25:36;;;;;;;3.88;0.80;;;;;;;18.39;61.16;96406.25;10395876;28;20041;-29
2023/05/10 16:30:36;;;;;;;1.73;0.50;;;;;;;18.47;63.65;96399.47;10403147;28;20036;-30
2023/05/10 16:35:37;;;;;;;3.97;1.20;;;;;;;18.45;60.27;96406.25;10393900;28;20038;-30
2023/05/10 16:40:38;;;;;;;2.30;0.88;;;;;;;18.33;61.03;96404.59;10411191;28;20059;-30
2023/05/10 16:45:38;;;;;;;0.87;0.50;;;;;;;18.33;61.48;96397.00;10408730;28;20041;-29
2023/05/10 16:50:42;;;;;;;1.67;0.70;;;;;;;18.31;61.82;96408.84;10420101;28;20667;-30
2023/05/10 16:55:42;;;;;;;1.02;0.55;;;;;;;18.31;62.24;96416.44;10410816;28;20331;-30
2023/05/10 17:00:43;;;;;;;1.30;0.50;;;;;;;18.33;64.30;96427.41;10420573;28;20064;-29
2023/05/10 17:05:43;;;;;;;0.67;0.23;;;;;;;18.32;63.75;96435.03;10395222;28;20029;-30
2023/05/10 17:10:44;;;;;;;6.87;0.73;;;;;;;18.29;61.70;96435.88;10376926;28;20029;-30
2023/05/10 17:15:47;;;;;;;4.63;0.98;;;;;;;18.25;61.00;96443.47;10411156;28;20091;-30
2023/05/10 17:20:48;;;;;;;2.38;0.80;;;;;;;18.26;61.02;96435.03;10417558;28;20044;-30
2023/05/10 17:25:48;;;;;;;2.42;0.57;;;;;;;18.30;64.65;96451.91;10422829;28;20048;-30
2023/05/10 17:30:55;;;;;;;3.03;0.57;;;;;;;18.44;66.13;96437.50;10396591;28;20045;-29
2023/05/10 17:35:55;;;;;;;0.73;0.45;;;;;;;18.51;62.92;96444.25;10403729;28;20314;-29
2023/05/10 17:40:56;;;;;;;4.00;0.68;;;;;;;18.42;61.99;96434.16;10398079;28;20043;-30
2023/05/10 17:45:56;;;;;;;1.30;0.50;;;;;;;18.32;61.91;96437.56;10427822;28;20049;-31
2023/05/10 17:50:56;;;;;;;1.70;0.50;;;;;;;18.28;61.77;96443.44;10420424;28;20037;-30
2023/05/10 17:55:57;;;;;;;2.53;0.50;;;;;;;18.25;60.54;96441.75;10411068;28;20283;-29
2023/05/10 18:00:58;;;;;;;2.53;0.73;;;;;;;18.24;60.40;96444.31;10426570;28;20292;-31
2023/05/10 18:05:58;;;;;;;1.50;0.70;;;;;;;18.26;60.32;96450.22;10425050;28;20025;-29
2023/05/10 18:10:59;;;;;;;6.00;0.80;;;;;;;18.27;61.26;96451.91;10423193;28;20310;-30
2023/05/10 18:15:59;;;;;;;2.42;0.55;;;;;;;18.24;60.26;96451.94;10416620;28;20498;-29
2023/05/10 18:21:00;;;;;;;1.13;0.50;;;;;;;18.27;61.43;96455.28;10377319;28;20042;-29
2023/05/10 18:26:01;;;;;;;3.17;0.90;;;;;;;18.24;60.47;96451.94;10395538;28;20048;-30
2023/05/10 18:31:02;;;;;;;2.70;0.40;;;;;;;18.38;61.07;96467.94;10402264;28;20304;-30
2023/05/10 18:36:04;;;;;;;2.25;0.50;;;;;;;18.46;60.76;96464.53;10418537;28;20033;-30
2023/05/10 18:41:05;;;;;;;2.17;0.50;;;;;;;18.51;59.83;96472.13;10383552;28;20032;-30
2023/05/10 18:46:06;;;;;;;4.47;0.40;;;;;;;18.43;59.56;96471.31;10383150;28;20042;-30
2023/05/10 18:51:06;;;;;;;3.85;0.50;;;;;;;18.35;59.48;96485.69;10384170;28;20040;-30
2023/05/10 18:56:07;;;;;;;3.53;0.93;;;;;;;18.31;59.40;96473.88;10428859;23;20429;-30
2023/05/10 19:01:07;;;;;;;0.70;0.50;;;;;;;18.30;59.14;96479.78;10457103;28;20555;-30
2023/05/10 19:06:08;;;;;;;3.85;0.47;;;;;;;18.27;58.91;96482.31;10452231;28;20560;-30
2023/05/10 19:11:08;;;;;;;2.80;0.40;;;;;;;18.28;59.06;96489.06;10456103;28;20036;-30
2023/05/10 19:16:11;;;;;;;2.60;0.50;;;;;;;18.28;59.10;96501.75;10478447;28;20032;-30
2023/05/10 19:21:11;;;;;;;2.47;0.43;;;;;;;18.25;59.22;96507.66;10472706;28;20033;-30
2023/05/10 19:26:12;;;;;;;0.77;0.40;;;;;;;18.26;59.08;96511.88;10451178;22;20049;-26
2023/05/10 19:31:12;;;;;;;0.23;0.17;;;;;;;18.24;58.56;96512.75;10398194;28;20041;-26
2023/05/10 19:36:12;;;;;;;1.27;0.50;;;;;;;18.32;61.48;96501.75;10382401;28;20134;-27
2023/05/10 19:41:13;;;;;;;2.55;0.60;;;;;;;18.46;62.92;96515.25;10337333;28;20064;-26
2023/05/10 19:46:13;;;;;;;1.83;0.50;;;;;;;18.42;60.64;96520.31;10386583;28;20680;-26
2023/05/10 19:51:14;;;;;;;3.47;0.30;;;;;;;18.31;59.10;96514.41;10402897;28;20049;-26
2023/05/10 19:56:15;;;;;;;0.60;0.20;;;;;;;18.26;58.68;96516.09;10396091;28;20034;-27
2023/05/10 20:01:15;;;;;;;0.85;0.43;;;;;;;18.22;58.58;96515.28;10382855;28;20049;-26
2023/05/10 20:06:16;;;;;;;1.40;0.40;;;;;;;18.19;58.64;96506.81;10398041;28;20048;-26
2023/05/10 20:11:16;;;;;;;1.93;0.30;;;;;;;18.19;58.52;96516.97;10394001;28;20037;-27
2023/05/10 20:16:17;;;;;;;0.60;0.40;;;;;;;18.18;58.52;96505.16;10383438;28;20124;-26
2023/05/10 20:21:17;;;;;;;0.60;0.30;;;;;;;18.18;58.38;96512.75;10399490;28;20030;-26
2023/05/10 20:26:17;;;;;;;4.75;0.30;;;;;;;18.18;58.50;96515.28;10388223;28;20033;-27
2023/05/10 20:31:18;;;;;;;0.60;0.40;;;;;;;18.17;58.68;96516.13;10395193;28;20046;-26
2023/05/10 20:36:18;;;;;;;0.53;0.40;;;;;;;18.22;60.36;96520.34;10406303;28;20402;-26
2023/05/10 20:41:19;;;;;;;5.90;1.10;;;;;;;18.40;64.08;96519.50;10411202;28;20641;-26
2023/05/10 20:46:19;;;;;;;3.93;0.40;;;;;;;18.45;61.38;96513.56;10393053;28;20512;-26
2023/05/10 20:51:19;;;;;;;3.00;0.30;;;;;;;18.34;60.77;96514.44;10408680;28;20386;-27
2023/05/10 20:56:20;;;;;;;0.63;0.30;;;;;;;18.25;59.10;96506.81;10404303;28;20280;-26
2023/05/10 21:01:24;;;;;;;1.98;0.40;;;;;;;18.22;58.96;96509.34;10399493;28;20041;-26
2023/05/10 21:06:24;;;;;;;0.20;0.20;;;;;;;18.20;58.86;96508.50;10409142;28;20025;-26
2023/05/10 21:11:25;;;;;;;0.60;0.30;;;;;;;18.18;58.81;96511.03;10397058;28;20029;-26
2023/05/10 21:16:25;;;;;;;0.43;0.30;;;;;;;18.17;58.76;96511.06;10391674;28;20087;-27
2023/05/10 21:21:25;;;;;;;0.57;0.40;;;;;;;18.17;58.63;96508.53;10408802;28;20041;-26
2023/05/10 21:26:26;;;;;;;2.00;0.20;;;;;;;18.16;58.58;96506.84;10408977;28;20033;-26
2023/05/10 21:31:26;;;;;;;0.53;0.27;;;;;;;18.14;58.46;96509.38;10407836;28;20042;-26
2023/05/10 21:36:26;;;;;;;0.40;0.27;;;;;;;18.14;58.46;96505.97;10399457;28;20390;-26
2023/05/10 21:41:27;;;;;;;3.92;0.50;;;;;;;18.32;63.30;96503.47;10407876;28;20037;-26
2023/05/10 21:46:28;;;;;;;1.17;0.40;;;;;;;18.39;65.27;96497.50;10407705;28;20417;-26
2023/05/10 21:51:28;;;;;;;0.80;0.50;;;;;;;18.41;60.39;96505.97;10400943;28;20048;-26
2023/05/10 21:56:28;;;;;;;0.20;0.20;;;;;;;18.30;60.77;96497.53;10406609;28;20045;-26
2023/05/10 22:01:29;;;;;;;0.40;0.30;;;;;;;18.23;59.18;96500.88;10392380;28;20042;-27
2023/05/10 22:06:29;;;;;;;0.57;0.20;;;;;;;18.20;58.94;96513.56;10405370;28;20034;-26
2023/05/10 22:11:30;;;;;;;0.95;0.47;;;;;;;18.18;59.00;96512.75;10392651;28;20061;-26
2023/05/10 22:16:30;;;;;;;2.05;0.32;;;;;;;18.17;58.90;96506.00;10398446;28;20040;-26
2023/05/10 22:21:30;;;;;;;2.23;0.43;;;;;;;18.15;58.72;96512.75;10407821;28;20037;-26
2023/05/10 22:26:31;;;;;;;0.93;0.23;;;;;;;18.14;58.63;96505.97;10392347;28;20038;-25
2023/05/10 22:31:31;;;;;;;0.70;0.20;;;;;;;18.14;58.85;96511.06;10398393;28;20044;-26
2023/05/10 22:36:32;;;;;;;1.07;0.30;;;;;;;18.13;59.08;96516.97;10405744;28;20472;-26
2023/05/10 22:41:33;;;;;;;0.95;0.45;;;;;;;18.15;60.63;96517.84;10391673;28;20492;-26
2023/05/10 22:46:36;;;;;;;3.13;0.50;;;;;;;18.35;65.62;96511.88;10401315;28;20158;-26
2023/05/10 22:51:36;;;;;;;0.28;0.20;;;;;;;18.41;62.44;96505.97;10414426;28;20033;-27
2023/05/10 22:56:36;;;;;;;1.07;0.40;;;;;;;18.35;61.18;96511.03;10415452;28;20397;-26
2023/05/10 23:01:37;;;;;;;0.73;0.40;;;;;;;18.25;59.86;96507.66;10404342;28;20044;-26
2023/05/10 23:06:38;;;;;;;0.55;0.22;;;;;;;18.21;59.17;96510.19;10413572;28;20116;-26
2023/05/10 23:11:38;;;;;;;0.65;0.30;;;;;;;18.17;58.97;96509.34;10398129;28;20041;-27
2023/05/10 23:16:39;;;;;;;0.53;0.30;;;;;;;18.15;59.13;96502.63;10413395;28;20523;-25
2023/05/10 23:21:39;;;;;;;0.20;0.20;;;;;;;18.14;58.72;96505.97;10404436;28;20029;-26